Terminal Aerodrome Forecast
Issued by NWS Albany, NY

Home | Current Version | Previous Version | Text Only | Print | Product List | Glossary On
Versions: 1 2 3 4 5 6 7 8 9 10 11 12 13 14 15 16 17
000
FTUS41 KALY 291700
TAFALB
TAF
KALB 291728Z 2918/3018 VRB05KT P6SM FEW040
     FM300000 VRB03KT P6SM SKC
     FM300600 17004KT P6SM SCT250
     FM301300 18010KT P6SM FEW050 SCT150 BKN250=

USA.gov is the U.S. government's official web portal to all federal, state and local government web resources and services.